Time;durP1;ratioP1;P1;durP2;ratioP2;P2;SDS_P1;SDS_P2;PMS_P1;PMS_P2;Temp;Humidity;BMP_temperature;BMP_pressure;BME280_temperature;BME280_humidity;BME280_pressure;Samples;Min_cycle;Max_cycle;Signal;HPM_P1;HPM_P2
2022/09/30 00:01:54;;;;;;;15.65;9.50;;;;;;;14.27;90.99;99685.06;1774407;79;21040;-65
2022/09/30 00:04:24;;;;;;;14.95;10.38;;;;;;;14.27;91.07;99689.19;1774332;81;21429;-65
2022/09/30 00:06:53;;;;;;;14.07;9.88;;;;;;;14.25;91.13;99681.16;1774355;79;21440;-66
2022/09/30 00:09:25;;;;;;;16.05;9.60;;;;;;;14.25;91.15;99677.57;1775522;79;21004;-65
2022/09/30 00:11:55;;;;;;;16.87;9.65;;;;;;;14.24;91.20;99673.14;1774416;80;20976;-66
2022/09/30 00:14:25;;;;;;;13.93;9.20;;;;;;;14.24;91.24;99680.87;1774532;81;21063;-65
2022/09/30 00:16:55;;;;;;;13.90;9.88;;;;;;;14.24;91.32;99674.52;1783329;79;21015;-66
2022/09/30 00:19:24;;;;;;;16.10;10.18;;;;;;;14.22;91.43;99675.30;1774326;80;21012;-65
2022/09/30 00:21:54;;;;;;;16.23;10.43;;;;;;;14.22;91.61;99678.89;1774421;81;21024;-65
2022/09/30 00:24:23;;;;;;;15.25;9.40;;;;;;;14.21;91.78;99681.88;1774620;81;21500;-65
2022/09/30 00:26:53;;;;;;;12.98;9.18;;;;;;;14.22;91.96;99681.64;1774388;81;21440;-65
2022/09/30 00:29:23;;;;;;;15.48;9.80;;;;;;;14.23;92.20;99679.73;1774263;81;20997;-65
2022/09/30 00:31:52;;;;;;;15.80;9.98;;;;;;;14.25;92.33;99677.03;1774304;79;21448;-65
2022/09/30 00:34:22;;;;;;;14.45;9.85;;;;;;;14.30;92.43;99688.71;1774543;80;21075;-66
2022/09/30 00:36:52;;;;;;;13.45;9.15;;;;;;;14.33;92.43;99683.30;1788366;79;21438;-66
2022/09/30 00:39:25;;;;;;;14.47;9.43;;;;;;;14.35;92.38;99684.73;1787938;80;21082;-65
2022/09/30 00:42:00;;;;;;;15.10;9.30;;;;;;;14.37;92.33;99683.11;1788305;80;21114;-64
2022/09/30 00:44:51;;;;;;;15.28;9.68;;;;;;;14.38;92.34;99690.30;1788020;79;21008;-66
2022/09/30 00:47:42;;;;;;;13.65;9.48;;;;;;;14.38;92.38;99700.78;1787974;80;21011;-66
2022/09/30 00:50:33;;;;;;;14.53;8.98;;;;;;;14.41;92.36;99710.50;1788062;80;21058;-64
2022/09/30 00:53:13;;;;;;;17.05;9.93;;;;;;;14.39;92.36;99712.66;1788110;80;21043;-65
2022/09/30 00:55:59;;;;;;;13.68;9.08;;;;;;;14.35;92.45;99712.83;1788471;80;21048;-65
2022/09/30 00:58:52;;;;;;;15.15;9.38;;;;;;;14.34;92.66;99711.16;1788170;80;21466;-65
2022/09/30 01:01:21;;;;;;;17.12;10.48;;;;;;;14.35;92.77;99709.53;1788002;80;22042;-67
2022/09/30 01:03:54;;;;;;;14.68;9.70;;;;;;;14.36;92.75;99711.21;1788297;80;21058;-66
2022/09/30 01:06:24;;;;;;;13.93;9.23;;;;;;;14.39;92.75;99707.14;1788327;79;21062;-65
2022/09/30 01:08:57;;;;;;;14.10;10.30;;;;;;;14.40;92.77;99713.79;1788317;80;21007;-66
2022/09/30 01:11:27;;;;;;;16.85;9.40;;;;;;;14.39;92.83;99708.52;1819316;79;21102;-65
2022/09/30 01:14:05;;;;;;;14.85;8.95;;;;;;;14.38;92.89;99704.92;1820266;79;21015;-64
2022/09/30 01:16:43;;;;;;;13.50;9.15;;;;;;;14.38;92.92;99706.84;1792246;79;21063;-66
2022/09/30 01:19:44;;;;;;;12.10;8.40;;;;;;;14.39;92.96;99708.52;1788214;79;21039;-65
2022/09/30 01:22:34;;;;;;;15.32;9.50;;;;;;;14.37;93.02;99709.30;1788082;79;21016;-65
2022/09/30 01:25:25;;;;;;;14.95;8.88;;;;;;;14.34;93.25;99706.48;1800840;79;21038;-66
2022/09/30 01:28:17;;;;;;;11.90;8.45;;;;;;;14.34;93.40;99709.77;1751176;82;21079;-65
2022/09/30 01:31:11;;;;;;;14.00;7.62;;;;;;;14.34;93.54;99708.40;1750903;82;21016;-66
2022/09/30 01:34:18;;;;;;;13.83;8.28;;;;;;;14.34;93.71;99716.66;1750957;82;21501;-67
2022/09/30 01:37:02;;;;;;;11.97;7.80;;;;;;;14.33;93.89;99714.45;1682617;85;21087;-64
2022/09/30 01:39:56;;;;;;;12.78;8.35;;;;;;;14.33;94.13;99723.25;1734607;82;22189;-66
2022/09/30 01:42:42;;;;;;;12.20;7.87;;;;;;;14.32;94.21;99725.71;1782601;80;21043;-66
2022/09/30 01:45:34;;;;;;;11.68;7.70;;;;;;;14.28;94.27;99723.94;1782648;79;21016;-65
2022/09/30 01:48:28;;;;;;;14.20;7.17;;;;;;;14.25;94.36;99723.88;1782698;80;21011;-65
2022/09/30 01:51:14;;;;;;;12.55;7.70;;;;;;;14.24;94.53;99728.25;1727532;80;20972;-64
2022/09/30 01:53:57;;;;;;;12.88;8.40;;;;;;;14.20;94.67;99723.75;1782911;80;21008;-65
2022/09/30 01:56:42;;;;;;;12.15;7.95;;;;;;;14.19;94.89;99725.37;1782552;80;21039;-66
2022/09/30 01:59:19;;;;;;;10.98;7.22;;;;;;;14.17;94.96;99732.49;1806720;79;21027;-66
2022/09/30 02:02:00;;;;;;;;;;;;;;;14.12;95.07;99724.10;1817171;79;21043;-64
2022/09/30 02:04:35;;;;;;;10.30;7.45;;;;;;;14.09;95.39;99724.58;1745341;82;20154;-65
2022/09/30 02:07:13;;;;;;;13.60;8.10;;;;;;;14.09;95.70;99725.11;1782572;80;21043;-66
2022/09/30 02:09:53;;;;;;;10.40;7.55;;;;;;;14.08;95.93;99724.27;1782731;80;20988;-66
2022/09/30 02:12:26;;;;;;;11.90;7.58;;;;;;;14.08;96.12;99720.14;1801902;79;21023;-66
2022/09/30 02:15:00;;;;;;;13.80;7.62;;;;;;;14.09;96.21;99723.73;1729779;82;21535;-65
2022/09/30 02:17:35;;;;;;;10.38;6.97;;;;;;;14.09;96.27;99718.23;1752242;82;21047;-66
2022/09/30 02:20:10;;;;;;;11.57;7.10;;;;;;;14.08;96.48;99720.14;1748530;82;21028;-65
2022/09/30 02:22:46;;;;;;;11.73;7.22;;;;;;;14.09;96.66;99727.88;1724502;82;21488;-65
2022/09/30 02:25:19;;;;;;;11.40;7.22;;;;;;;14.07;96.88;99734.99;1745570;82;21008;-65
2022/09/30 02:27:53;;;;;;;10.90;7.42;;;;;;;14.08;97.18;99728.95;1745667;82;21490;-65
2022/09/30 02:30:23;;;;;;;11.35;7.05;;;;;;;14.10;97.40;99727.63;1783060;79;21506;-65
2022/09/30 02:32:59;;;;;;;14.03;7.00;;;;;;;14.13;97.49;99726.31;1782648;80;21007;-65
2022/09/30 02:35:36;;;;;;;12.40;6.17;;;;;;;14.14;97.62;99730.21;1782324;80;21498;-66
2022/09/30 02:38:18;;;;;;;15.90;7.05;;;;;;;14.14;97.80;99723.33;1782769;80;21416;-65
2022/09/30 02:40:55;;;;;;;10.00;7.15;;;;;;;14.16;97.89;99728.06;1783084;80;21012;-70
2022/09/30 02:43:26;;;;;;;11.63;6.72;;;;;;;14.15;97.96;99723.62;1782561;80;21063;-65
2022/09/30 02:46:22;;;;;;;11.12;6.80;;;;;;;14.16;98.02;99726.68;1782649;80;21019;-65
2022/09/30 02:49:22;;;;;;;11.45;6.78;;;;;;;14.17;98.05;99727.52;1782637;80;21039;-67
2022/09/30 02:52:07;;;;;;;14.93;7.10;;;;;;;14.16;98.00;99723.92;1782811;79;21035;-66
2022/09/30 02:55:05;;;;;;;13.65;7.20;;;;;;;14.14;98.01;99721.95;1782837;80;21000;-65
2022/09/30 02:58:00;;;;;;;13.53;7.35;;;;;;;14.12;98.13;99730.98;1745377;82;21022;-66
2022/09/30 03:00:31;;;;;;;14.60;7.50;;;;;;;14.12;98.24;99732.36;1773817;80;21043;-64
2022/09/30 03:03:11;;;;;;;11.20;7.10;;;;;;;14.13;98.24;99727.69;1782595;80;21475;-65
2022/09/30 03:05:40;;;;;;;12.40;6.90;;;;;;;14.12;98.19;99726.02;1779315;80;21447;-65
2022/09/30 03:08:10;;;;;;;11.43;7.53;;;;;;;14.11;98.21;99735.36;1782561;80;21101;-64
2022/09/30 03:10:40;;;;;;;13.58;7.42;;;;;;;14.05;98.20;99735.77;1782605;80;21058;-66
2022/09/30 03:13:45;;;;;;;10.90;6.75;;;;;;;14.02;98.28;99732.11;1782700;80;21003;-64
2022/09/30 03:16:46;;;;;;;9.83;6.90;;;;;;;14.03;98.46;99734.33;1781863;80;21036;-65
2022/09/30 03:20:00;;;;;;;14.45;7.25;;;;;;;14.02;98.55;99738.16;1782723;80;21024;-65
2022/09/30 03:22:55;;;;;;;11.50;7.03;;;;;;;14.01;98.61;99737.31;1790657;79;21063;-66
2022/09/30 03:25:53;;;;;;;12.53;6.85;;;;;;;13.98;98.73;99739.70;1813336;79;20992;-66
2022/09/30 03:28:37;;;;;;;10.28;6.47;;;;;;;13.98;98.89;99748.80;1783222;79;21043;-66
2022/09/30 03:31:17;;;;;;;11.00;6.95;;;;;;;13.99;98.99;99744.14;1782400;80;21087;-64
2022/09/30 03:34:00;;;;;;;10.80;6.72;;;;;;;14.00;99.13;99754.92;1782566;80;21007;-65
2022/09/30 03:37:17;;;;;;;13.25;7.67;;;;;;;14.03;99.25;99759.95;1778819;80;21087;-65
2022/09/30 03:40:10;;;;;;;13.32;7.30;;;;;;;14.03;99.50;99761.33;1774346;81;21075;-66
2022/09/30 03:42:46;;;;;;;13.20;7.75;;;;;;;14.06;99.86;99764.99;1774633;81;21071;-65
2022/09/30 03:45:38;;;;;;;11.15;7.03;;;;;;;14.09;100.00;99755.42;1793708;79;21444;-66
2022/09/30 03:48:08;;;;;;;11.35;6.75;;;;;;;14.13;100.00;99764.34;1796375;79;21052;-66
2022/09/30 03:50:39;;;;;;;18.12;8.38;;;;;;;14.15;100.00;99763.58;1774609;81;21059;-65
2022/09/30 03:53:11;;;;;;;10.75;7.42;;;;;;;14.19;100.00;99766.69;1774605;81;21615;-64
2022/09/30 03:55:47;;;;;;;13.98;7.72;;;;;;;14.23;100.00;99771.50;1777160;79;21514;-64
2022/09/30 03:58:18;;;;;;;14.28;7.22;;;;;;;14.26;100.00;99769.64;1738053;82;21071;-65
2022/09/30 04:00:51;;;;;;;11.48;7.35;;;;;;;14.29;100.00;99775.22;1796244;79;21456;-64
2022/09/30 04:03:22;;;;;;;13.62;7.30;;;;;;;14.34;100.00;99778.67;1806103;79;21961;-65
2022/09/30 04:05:52;;;;;;;14.90;8.58;;;;;;;14.36;100.00;99783.41;1806268;79;21023;-65
2022/09/30 04:08:22;;;;;;;16.35;8.63;;;;;;;14.38;100.00;99782.09;1806243;79;21187;-65
2022/09/30 04:10:52;;;;;;;16.77;8.23;;;;;;;14.42;100.00;99783.33;1806083;79;21082;-64
2022/09/30 04:13:23;;;;;;;18.92;9.28;;;;;;;14.46;100.00;99794.72;1722241;82;21091;-65
2022/09/30 04:15:55;;;;;;;15.83;8.70;;;;;;;14.49;100.00;99802.51;1724034;82;21007;-64
2022/09/30 04:18:25;;;;;;;13.88;8.50;;;;;;;14.52;100.00;99811.69;1774320;81;21099;-65
2022/09/30 04:20:55;;;;;;;15.53;8.43;;;;;;;14.56;100.00;99805.45;1774237;81;21485;-65
2022/09/30 04:23:24;;;;;;;18.00;9.45;;;;;;;14.60;100.00;99808.57;1774604;81;21015;-66
2022/09/30 04:25:55;;;;;;;17.65;10.13;;;;;;;14.63;100.00;99810.02;1774511;79;21452;-65
2022/09/30 04:28:25;;;;;;;14.98;9.23;;;;;;;14.65;100.00;99815.59;1774614;81;21013;-65
2022/09/30 04:30:56;;;;;;;23.40;10.58;;;;;;;14.67;100.00;99816.19;1762574;81;21541;-68
2022/09/30 04:33:26;;;;;;;18.82;9.80;;;;;;;14.69;100.00;99818.17;1778020;80;21436;-65
2022/09/30 04:35:57;;;;;;;17.10;9.35;;;;;;;14.71;100.00;99818.77;1774321;80;20991;-65
2022/09/30 04:38:28;;;;;;;19.25;9.80;;;;;;;14.73;100.00;99819.38;1774303;81;21455;-66
2022/09/30 04:41:00;;;;;;;22.07;10.70;;;;;;;14.78;100.00;99814.52;1774670;79;20981;-65
2022/09/30 04:43:29;;;;;;;19.98;10.35;;;;;;;14.80;100.00;99814.58;1753504;81;21020;-65
2022/09/30 04:45:59;;;;;;;17.65;10.13;;;;;;;14.82;100.00;99816.55;1774581;79;21077;-66
2022/09/30 04:48:30;;;;;;;18.35;9.78;;;;;;;14.84;100.00;99818.53;1774477;80;21028;-65
2022/09/30 04:51:00;;;;;;;22.07;10.08;;;;;;;14.84;100.00;99814.40;1774557;81;21082;-64
2022/09/30 04:53:30;;;;;;;17.37;9.60;;;;;;;14.87;100.00;99820.81;1774561;79;21071;-67
2022/09/30 04:56:00;;;;;;;14.93;9.33;;;;;;;14.89;100.00;99828.30;1774518;81;21238;-66
2022/09/30 04:58:31;;;;;;;13.45;8.20;;;;;;;14.92;100.00;99833.89;1774315;81;21016;-66
2022/09/30 05:01:09;;;;;;;15.93;8.53;;;;;;;14.93;100.00;99836.94;1774150;80;21036;-64
2022/09/30 05:03:42;;;;;;;13.83;9.00;;;;;;;14.95;100.00;99833.41;1774371;81;20993;-64
2022/09/30 05:06:12;;;;;;;14.83;8.75;;;;;;;14.99;100.00;99838.77;1774342;81;21008;-65
2022/09/30 05:08:42;;;;;;;13.78;9.20;;;;;;;15.00;100.00;99843.21;1774302;81;21023;-65
2022/09/30 05:11:16;;;;;;;14.28;8.55;;;;;;;14.98;100.00;99840.39;1774210;79;21047;-65
2022/09/30 05:13:46;;;;;;;15.13;8.65;;;;;;;14.97;100.00;99834.03;1774308;81;21428;-64
2022/09/30 05:16:16;;;;;;;12.47;8.55;;;;;;;14.97;100.00;99839.55;1774435;80;21464;-65
2022/09/30 05:18:46;;;;;;;11.75;8.28;;;;;;;14.98;100.00;99845.91;1774323;81;21008;-67
2022/09/30 05:21:19;;;;;;;12.55;8.18;;;;;;;14.98;100.00;99844.53;1774522;81;20976;-65
2022/09/30 05:23:48;;;;;;;15.23;9.33;;;;;;;14.99;100.00;99839.31;1774419;81;21083;-67
2022/09/30 05:26:18;;;;;;;18.17;9.88;;;;;;;15.03;100.00;99841.89;1774307;81;21032;-65
2022/09/30 05:28:49;;;;;;;18.60;10.98;;;;;;;15.05;100.00;99852.14;1774372;81;21008;-65
2022/09/30 05:31:19;;;;;;;14.95;8.53;;;;;;;15.08;100.00;99851.66;1774515;81;21051;-65
2022/09/30 05:33:54;;;;;;;18.05;9.78;;;;;;;15.10;100.00;99857.78;1774273;81;21042;-66
2022/09/30 05:36:25;;;;;;;12.10;8.25;;;;;;;15.10;100.00;99864.14;1773663;80;21008;-66
2022/09/30 05:38:57;;;;;;;13.93;8.78;;;;;;;15.14;100.00;99870.02;1774260;80;21530;-65
2022/09/30 05:41:27;;;;;;;13.72;9.00;;;;;;;15.14;100.00;99869.48;1774345;81;21039;-65
2022/09/30 05:44:00;;;;;;;15.15;8.90;;;;;;;15.15;100.00;99872.53;1774281;81;21024;-65
2022/09/30 05:46:30;;;;;;;14.63;9.30;;;;;;;15.18;100.00;99867.08;1774193;81;21040;-65
2022/09/30 05:48:59;;;;;;;12.60;8.55;;;;;;;15.21;100.00;99868.81;1774170;80;21043;-65
2022/09/30 05:51:29;;;;;;;14.68;8.85;;;;;;;15.26;100.00;99876.91;1774377;81;21031;-65
2022/09/30 05:53:58;;;;;;;12.90;8.88;;;;;;;15.29;100.00;99881.95;1774193;81;21019;-66
2022/09/30 05:56:28;;;;;;;15.43;9.38;;;;;;;15.30;100.00;99883.09;1774185;81;21019;-65
2022/09/30 05:58:57;;;;;;;13.48;9.13;;;;;;;15.32;100.00;99887.83;1774205;81;21011;-64
2022/09/30 06:01:26;;;;;;;14.50;10.25;;;;;;;15.35;100.00;99884.58;1774256;81;21440;-68
2022/09/30 06:03:55;;;;;;;18.98;10.85;;;;;;;15.36;100.00;99894.55;1774400;81;21008;-66
2022/09/30 06:06:25;;;;;;;18.82;10.68;;;;;;;15.38;100.00;99896.52;1774304;81;21534;-68
2022/09/30 06:08:54;;;;;;;14.70;9.33;;;;;;;15.40;100.00;99891.59;1774385;80;21059;-65
2022/09/30 06:11:23;;;;;;;21.25;11.90;;;;;;;15.43;100.00;99898.02;1776149;79;21432;-68
2022/09/30 06:13:55;;;;;;;17.60;10.70;;;;;;;15.47;100.00;99904.73;1774347;79;21059;-65
2022/09/30 06:16:25;;;;;;;14.70;10.13;;;;;;;15.51;100.00;99899.03;1774422;81;21052;-65
2022/09/30 06:18:55;;;;;;;17.40;11.12;;;;;;;15.55;100.00;99907.66;1774533;81;21039;-67
2022/09/30 06:21:24;;;;;;;13.93;10.03;;;;;;;15.62;100.00;99915.88;1752709;81;21028;-65
2022/09/30 06:23:53;;;;;;;13.18;9.30;;;;;;;15.66;100.00;99912.94;1774126;81;21474;-66
2022/09/30 06:26:23;;;;;;;16.45;10.23;;;;;;;15.71;100.00;99911.13;1779857;79;21028;-63
2022/09/30 06:28:53;;;;;;;14.95;10.32;;;;;;;15.75;100.00;99911.48;1805950;79;21474;-66
2022/09/30 06:31:23;;;;;;;13.53;9.43;;;;;;;15.77;100.00;99899.64;1791746;79;21031;-67
2022/09/30 06:33:53;;;;;;;15.63;10.45;;;;;;;15.80;100.00;99903.30;1774291;81;21047;-65
2022/09/30 06:36:22;;;;;;;16.50;11.05;;;;;;;15.84;100.00;99909.47;1774329;81;21059;-65
2022/09/30 06:38:53;;;;;;;17.10;11.30;;;;;;;15.89;100.00;99912.04;1774418;80;21094;-66
2022/09/30 06:41:25;;;;;;;15.70;9.85;;;;;;;15.89;100.00;99910.66;1774302;80;21036;-64
2022/09/30 06:43:54;;;;;;;15.32;10.43;;;;;;;15.90;100.00;99917.32;1774506;80;21051;-66
2022/09/30 06:46:26;;;;;;;18.30;11.65;;;;;;;15.96;100.00;99927.94;1795772;79;21004;-66
2022/09/30 06:48:57;;;;;;;19.02;11.50;;;;;;;15.98;100.00;99922.47;1805732;79;21011;-65
2022/09/30 06:51:32;;;;;;;16.10;11.40;;;;;;;16.02;100.00;99917.29;1724116;82;21036;-66
2022/09/30 06:54:01;;;;;;;17.50;11.28;;;;;;;16.05;100.00;99919.02;1774537;81;21416;-66
2022/09/30 06:56:31;;;;;;;19.50;11.10;;;;;;;16.09;100.00;99921.59;1774464;81;21019;-65
2022/09/30 06:59:01;;;;;;;16.15;11.05;;;;;;;16.13;100.00;99923.31;1774309;81;21056;-65
2022/09/30 07:01:30;;;;;;;21.75;11.97;;;;;;;16.16;100.00;99926.42;1774133;81;21482;-64
2022/09/30 07:04:08;;;;;;;16.95;11.73;;;;;;;16.19;100.00;99929.24;1774857;79;21034;-65
2022/09/30 07:06:34;;;;;;;23.32;12.80;;;;;;;16.23;100.00;99926.83;1773947;80;21084;-67
2022/09/30 07:09:05;;;;;;;21.52;13.08;;;;;;;16.28;100.00;99928.34;1774470;81;21482;-68
2022/09/30 07:11:40;;;;;;;18.80;12.82;;;;;;;16.33;99.80;99922.91;1774234;81;21016;-69
2022/09/30 07:14:09;;;;;;;21.12;13.93;;;;;;;16.37;99.38;99935.16;1774133;80;21515;-63
2022/09/30 07:16:39;;;;;;;19.05;12.68;;;;;;;16.40;98.97;99940.19;1774546;80;21627;-65
2022/09/30 07:19:10;;;;;;;22.82;15.28;;;;;;;16.43;98.73;99945.23;1774486;81;21067;-64
2022/09/30 07:21:40;;;;;;;21.70;15.60;;;;;;;16.50;98.58;99948.67;1774305;81;21055;-64
2022/09/30 07:24:10;;;;;;;27.10;16.90;;;;;;;16.55;98.31;99941.86;1774573;79;21063;-66
2022/09/30 07:26:43;;;;;;;19.20;12.95;;;;;;;16.60;97.87;99944.72;1740005;81;21099;-65
2022/09/30 07:29:15;;;;;;;20.02;13.30;;;;;;;16.63;97.37;99944.22;1790370;80;21028;-66
2022/09/30 07:31:45;;;;;;;21.45;13.05;;;;;;;16.65;96.88;99944.84;1790552;79;21008;-66
2022/09/30 07:34:15;;;;;;;18.50;13.40;;;;;;;16.65;96.51;99950.38;1791736;79;21106;-66
2022/09/30 07:36:48;;;;;;;21.97;13.50;;;;;;;16.71;96.47;99952.69;1664712;85;21107;-70
2022/09/30 07:39:17;;;;;;;20.30;12.93;;;;;;;16.78;96.30;99955.59;1717820;83;21515;-66
2022/09/30 07:41:47;;;;;;;19.55;13.25;;;;;;;16.88;95.96;99956.87;1682562;84;21032;-66
2022/09/30 07:44:17;;;;;;;23.10;14.23;;;;;;;16.97;95.49;99964.54;1742235;82;21039;-74
2022/09/30 07:46:46;;;;;;;25.05;15.05;;;;;;;17.03;95.03;99963.53;1683283;85;21056;-68
2022/09/30 07:49:27;;;;;;;20.55;14.33;;;;;;;17.10;94.68;99958.67;1722523;82;21198;-69
2022/09/30 07:51:49;;;;;;;27.80;14.70;;;;;;;17.19;94.18;99963.25;1718049;83;21067;-68
2022/09/30 07:54:23;;;;;;;20.12;14.13;;;;;;;17.28;93.50;99967.81;1731595;81;20995;-70
2022/09/30 07:56:54;;;;;;;20.72;14.87;;;;;;;17.35;93.02;99974.86;1774472;79;21012;-67
2022/09/30 07:59:26;;;;;;;23.80;15.10;;;;;;;17.44;92.53;99971.95;1773057;80;21041;-68
2022/09/30 08:01:55;;;;;;;23.62;14.80;;;;;;;17.51;91.93;99975.94;1774332;80;21009;-69
2022/09/30 08:04:25;;;;;;;19.57;13.75;;;;;;;17.59;91.38;99978.31;1774558;81;21023;-71
2022/09/30 08:06:57;;;;;;;20.20;14.65;;;;;;;17.67;90.84;99986.77;1774159;81;21031;-71
2022/09/30 08:09:27;;;;;;;22.73;14.75;;;;;;;17.71;90.20;99984.63;1774163;81;21068;-71
2022/09/30 08:11:57;;;;;;;22.70;14.60;;;;;;;17.70;89.50;99989.03;1774906;79;21048;-71
2022/09/30 08:14:28;;;;;;;18.98;13.95;;;;;;;17.68;89.34;99989.83;1774577;79;21060;-72
2022/09/30 08:16:59;;;;;;;17.82;12.28;;;;;;;17.72;89.25;99990.45;1773597;81;21036;-71
2022/09/30 08:19:31;;;;;;;19.55;12.78;;;;;;;17.79;89.19;99985.28;1774246;81;21047;-73
2022/09/30 08:22:02;;;;;;;22.48;14.45;;;;;;;17.85;88.93;99987.03;1774265;81;21004;-71
2022/09/30 08:24:31;;;;;;;18.95;13.15;;;;;;;17.90;88.50;99984.33;1774249;81;21039;-72
2022/09/30 08:27:00;;;;;;;22.62;12.58;;;;;;;17.91;88.21;99988.23;1774141;81;21498;-69
2022/09/30 08:29:29;;;;;;;18.20;12.80;;;;;;;17.94;88.10;99991.88;1774264;79;21076;-71
2022/09/30 08:32:01;;;;;;;19.45;12.53;;;;;;;17.97;87.83;99988.59;1773186;79;21075;-71
2022/09/30 08:34:34;;;;;;;19.87;13.38;;;;;;;18.00;87.84;99997.78;1774333;79;21051;-70
2022/09/30 08:37:04;;;;;;;20.62;13.90;;;;;;;18.02;87.65;99995.59;1781625;79;21071;-72
2022/09/30 08:39:37;;;;;;;20.88;13.85;;;;;;;18.02;87.45;100002.52;1781857;80;21035;-70
2022/09/30 08:42:29;;;;;;;16.90;12.45;;;;;;;18.01;87.46;100003.61;1779977;80;21444;-72
2022/09/30 08:45:20;;;;;;;19.27;12.80;;;;;;;18.04;87.49;100010.03;1779791;80;21034;-71
2022/09/30 08:48:04;;;;;;;20.52;13.88;;;;;;;18.04;87.36;100005.88;1775576;80;21047;-72
2022/09/30 08:50:53;;;;;;;22.75;14.73;;;;;;;18.09;87.53;100007.03;1800130;79;21423;-72
2022/09/30 08:53:25;;;;;;;19.37;13.13;;;;;;;18.15;87.22;100000.47;1795755;79;21052;-72
2022/09/30 08:55:56;;;;;;;18.87;13.80;;;;;;;18.19;87.06;99998.30;1703563;83;21107;-72
2022/09/30 08:58:31;;;;;;;18.37;12.80;;;;;;;18.27;86.62;100004.82;1699333;83;21539;-71
2022/09/30 09:01:29;;;;;;;19.10;14.43;;;;;;;18.30;86.50;100001.53;1717849;83;21103;-70
2022/09/30 09:04:02;;;;;;;26.20;15.70;;;;;;;18.37;86.19;100004.95;1757448;80;21028;-71
2022/09/30 09:07:01;;;;;;;18.20;13.30;;;;;;;18.42;85.88;100010.27;1798239;80;21073;-70
2022/09/30 09:09:57;;;;;;;20.43;12.95;;;;;;;18.49;85.68;100004.81;1784198;80;21051;-72
2022/09/30 09:12:44;;;;;;;19.02;12.85;;;;;;;18.58;85.07;100014.34;1690921;81;21067;-71
2022/09/30 09:15:50;;;;;;;18.77;13.32;;;;;;;18.64;84.50;100016.12;1767908;80;21015;-71
2022/09/30 09:18:40;;;;;;;18.32;13.25;;;;;;;18.72;84.48;100012.04;1787889;80;20996;-71
2022/09/30 09:21:23;;;;;;;22.67;15.00;;;;;;;18.82;83.88;100022.41;1797387;79;21102;-73
2022/09/30 09:23:53;;;;;;;20.35;14.35;;;;;;;18.85;83.37;100021.89;1798625;80;21024;-72
2022/09/30 09:26:23;;;;;;;24.60;15.25;;;;;;;18.87;83.12;100023.34;1798477;80;21032;-71
2022/09/30 09:29:32;;;;;;;22.85;15.78;;;;;;;18.88;82.98;100027.79;1798237;79;21831;-72
2022/09/30 09:32:06;;;;;;;22.75;15.45;;;;;;;18.90;82.87;100026.98;1718243;83;21024;-71
2022/09/30 09:34:37;;;;;;;19.05;14.18;;;;;;;18.95;82.55;100033.14;1796672;80;21091;-73
2022/09/30 09:40:28;;;;;;;23.47;14.23;;;;;;;19.07;82.13;100022.70;1787262;80;21099;-71
2022/09/30 09:43:08;;;;;;;22.05;14.83;;;;;;;19.11;81.49;100023.86;1788114;80;21111;-72
2022/09/30 09:45:59;;;;;;;22.62;15.68;;;;;;;19.12;81.31;100036.64;1798952;79;21043;-73
2022/09/30 09:48:34;;;;;;;22.58;15.03;;;;;;;19.14;81.26;100027.50;1787908;79;21055;-71
2022/09/30 09:51:26;;;;;;;24.95;14.60;;;;;;;19.16;81.12;100028.07;1787773;80;21082;-71
2022/09/30 09:53:57;;;;;;;19.55;14.80;;;;;;;19.19;80.94;100025.31;1787732;80;21051;-72
2022/09/30 09:56:28;;;;;;;25.02;14.43;;;;;;;19.20;80.79;100024.22;1787537;80;21070;-70
2022/09/30 09:59:16;;;;;;;21.48;14.55;;;;;;;19.21;80.74;100021.72;1788097;80;21035;-71
2022/09/30 10:01:53;;;;;;;24.25;14.18;;;;;;;19.23;80.61;100017.58;1788093;80;20995;-74
2022/09/30 10:04:28;;;;;;;24.98;13.25;;;;;;;19.27;80.29;100018.73;1788067;80;21023;-72
2022/09/30 10:07:01;;;;;;;19.17;13.50;;;;;;;19.31;80.11;100022.66;1760366;80;21034;-72
2022/09/30 10:09:33;;;;;;;24.37;13.53;;;;;;;19.37;79.86;100019.92;1787969;79;21043;-71
2022/09/30 10:12:14;;;;;;;22.90;13.78;;;;;;;19.38;79.55;100021.59;1787785;79;21003;-72
2022/09/30 10:14:54;;;;;;;21.75;13.70;;;;;;;19.41;79.28;100023.30;1787978;79;21060;-72
2022/09/30 10:17:33;;;;;;;20.88;13.93;;;;;;;19.49;79.20;100026.13;1787994;79;21507;-71
2022/09/30 10:20:22;;;;;;;23.30;14.10;;;;;;;19.55;78.76;100020.97;1787929;80;21462;-73
2022/09/30 10:22:52;;;;;;;20.43;13.68;;;;;;;19.55;78.72;100020.41;1785782;80;21318;-71
2022/09/30 10:25:24;;;;;;;24.95;14.07;;;;;;;19.59;78.27;100027.66;1710879;80;21479;-68
2022/09/30 10:27:59;;;;;;;20.77;13.80;;;;;;;19.61;78.36;100023.52;1788731;79;21092;-67
2022/09/30 10:30:37;;;;;;;19.25;13.28;;;;;;;19.67;78.50;100024.39;1788062;80;21035;-68
2022/09/30 10:33:28;;;;;;;21.05;14.05;;;;;;;19.74;78.42;100031.11;1787895;80;21327;-73
2022/09/30 10:36:08;;;;;;;16.82;13.18;;;;;;;19.78;78.17;100029.47;1787875;80;21008;-70
2022/09/30 10:38:39;;;;;;;18.12;13.85;;;;;;;19.78;78.00;100033.09;1785737;80;21036;-71
2022/09/30 10:41:08;;;;;;;22.13;14.30;;;;;;;19.82;78.09;100034.78;1774173;79;21035;-70
2022/09/30 10:43:43;;;;;;;21.35;13.78;;;;;;;19.85;77.90;100037.03;1752837;81;21042;-72
2022/09/30 10:46:13;;;;;;;21.68;14.10;;;;;;;19.85;77.78;100030.08;1774144;81;21168;-72
2022/09/30 10:48:44;;;;;;;26.95;15.20;;;;;;;19.85;77.79;100031.47;1747314;79;21059;-70
2022/09/30 10:51:34;;;;;;;27.15;15.68;;;;;;;19.87;77.85;100032.03;1671016;82;21036;-71
2022/09/30 10:54:05;;;;;;;26.95;15.40;;;;;;;19.89;77.98;100039.00;1806001;79;21023;-72
2022/09/30 10:56:44;;;;;;;26.27;15.25;;;;;;;19.91;78.08;100042.35;1705604;82;21028;-70
2022/09/30 10:59:24;;;;;;;23.95;14.87;;;;;;;19.95;78.02;100040.71;1721373;81;21650;-71
2022/09/30 11:01:57;;;;;;;26.10;15.30;;;;;;;19.98;78.05;100034.33;1702566;84;21142;-72
2022/09/30 11:04:38;;;;;;;20.92;14.70;;;;;;;20.02;77.97;100040.47;1774052;79;21043;-70
2022/09/30 11:07:30;;;;;;;21.70;14.40;;;;;;;20.04;77.71;100040.20;1774032;81;21075;-70
2022/09/30 11:10:41;;;;;;;20.52;14.28;;;;;;;20.06;77.59;100037.99;1774091;81;21023;-72
2022/09/30 11:13:41;;;;;;;26.73;14.85;;;;;;;20.04;77.46;100042.44;1774104;81;21012;-71
2022/09/30 11:16:22;;;;;;;22.20;15.75;;;;;;;20.02;77.60;100048.81;1774440;80;21026;-70
2022/09/30 11:19:11;;;;;;;25.37;15.93;;;;;;;20.04;77.57;100049.94;1773944;81;21062;-71
2022/09/30 11:21:47;;;;;;;25.08;16.23;;;;;;;19.99;77.66;100053.53;1775064;79;21074;-72
2022/09/30 11:24:40;;;;;;;26.07;14.63;;;;;;;19.99;77.92;100059.64;1774479;81;21459;-71
2022/09/30 11:27:29;;;;;;;27.73;15.45;;;;;;;20.01;78.03;100061.60;1774477;81;21071;-69
2022/09/30 11:30:14;;;;;;;20.97;15.38;;;;;;;20.02;78.12;100061.89;1776491;81;20976;-72
2022/09/30 11:32:55;;;;;;;24.18;15.65;;;;;;;20.03;78.08;100065.79;1796724;80;21020;-69
2022/09/30 11:35:34;;;;;;;23.30;15.15;;;;;;;20.06;78.02;100070.81;1774932;79;21041;-72
2022/09/30 11:38:39;;;;;;;23.22;13.95;;;;;;;20.07;77.79;100071.10;1774348;81;21479;-70
2022/09/30 11:41:28;;;;;;;27.62;16.20;;;;;;;20.05;77.76;100071.08;1774225;81;21479;-73
2022/09/30 11:44:36;;;;;;;23.62;15.95;;;;;;;20.02;77.97;100073.02;1718280;83;21028;-71
2022/09/30 11:47:44;;;;;;;26.55;15.38;;;;;;;20.00;78.00;100080.23;1740537;82;21049;-71
2022/09/30 11:50:22;;;;;;;21.40;15.28;;;;;;;19.99;78.11;100077.72;1747716;82;21062;-71
2022/09/30 11:53:32;;;;;;;25.55;14.87;;;;;;;19.97;78.12;100081.32;1731990;82;21455;-71
2022/09/30 11:56:21;;;;;;;23.22;13.93;;;;;;;19.95;78.47;100089.93;1745491;82;21043;-73
2022/09/30 11:58:53;;;;;;;23.50;14.98;;;;;;;19.97;78.58;100084.94;1747494;82;21035;-71
2022/09/30 12:01:32;;;;;;;21.00;15.38;;;;;;;20.00;78.49;100076.61;1738056;81;21499;-70
2022/09/30 12:04:36;;;;;;;21.20;13.40;;;;;;;20.00;78.65;100068.27;1774122;81;21067;-72
2022/09/30 12:07:22;;;;;;;19.92;13.35;;;;;;;20.03;78.46;100077.47;1774543;79;21506;-70